Time;durP1;ratioP1;P1;durP2;ratioP2;P2;SDS_P1;SDS_P2;PMS_P1;PMS_P2;Temp;Humidity;BMP_temperature;BMP_pressure;BME280_temperature;BME280_humidity;BME280_pressure;Samples;Min_cycle;Max_cycle;Signal;HPM_P1;HPM_P2
2022/09/08 00:00:04;;;;;;;15.32;11.93;;;16.40;99.90;;;;;;5035013;28;20025;-65
2022/09/08 00:02:30;;;;;;;14.23;11.45;;;16.40;99.90;;;;;;5033757;28;20057;-65
2022/09/08 00:04:56;;;;;;;14.68;12.30;;;16.40;99.90;;;;;;5035279;28;20040;-65
2022/09/08 00:07:22;;;;;;;21.15;12.95;;;16.40;99.90;;;;;;5035213;28;20037;-65
2022/09/08 00:09:48;;;;;;;13.95;12.50;;;16.30;99.90;;;;;;5035185;28;20030;-65
2022/09/08 00:12:15;;;;;;;13.98;12.48;;;16.30;99.90;;;;;;5033820;28;20025;-66
2022/09/08 00:14:41;;;;;;;16.30;11.75;;;16.30;99.90;;;;;;5033671;28;20037;-65
2022/09/08 00:17:06;;;;;;;14.10;12.13;;;16.30;99.90;;;;;;5035005;28;20031;-65
2022/09/08 00:19:32;;;;;;;14.02;11.18;;;16.30;99.90;;;;;;5034951;28;20096;-65
2022/09/08 00:21:58;;;;;;;17.30;11.52;;;16.30;99.90;;;;;;5034922;28;20029;-66
2022/09/08 00:24:23;;;;;;;14.30;11.80;;;16.30;99.90;;;;;;5034603;28;20017;-65
2022/09/08 00:26:49;;;;;;;13.45;11.80;;;16.20;99.90;;;;;;5033587;28;20116;-65
2022/09/08 00:29:14;;;;;;;15.25;10.85;;;16.20;99.90;;;;;;5035024;28;20461;-65
2022/09/08 00:31:41;;;;;;;13.52;11.15;;;16.10;99.90;;;;;;5034730;28;20458;-65
2022/09/08 00:34:07;;;;;;;12.73;11.40;;;16.10;99.90;;;;;;5034959;28;20033;-65
2022/09/08 00:36:33;;;;;;;17.85;12.77;;;16.10;99.90;;;;;;5034587;28;20041;-66
2022/09/08 00:39:00;;;;;;;17.98;12.27;;;16.10;99.90;;;;;;5033358;28;20179;-65
2022/09/08 00:41:28;;;;;;;13.77;11.93;;;16.10;99.90;;;;;;5034873;28;20029;-65
2022/09/08 00:44:00;;;;;;;17.15;12.48;;;16.10;99.90;;;;;;5034520;28;20104;-66
2022/09/08 00:46:41;;;;;;;16.73;13.50;;;16.10;99.90;;;;;;5034751;28;20030;-65
2022/09/08 00:49:18;;;;;;;16.60;13.30;;;16.10;99.90;;;;;;5034357;28;20496;-66
2022/09/08 00:51:53;;;;;;;17.55;13.60;;;16.20;99.90;;;;;;5034621;28;20022;-66
2022/09/08 00:54:19;;;;;;;18.27;12.82;;;16.10;99.90;;;;;;5033987;28;20030;-65
2022/09/08 00:56:47;;;;;;;17.85;13.35;;;16.10;99.90;;;;;;5034211;28;20141;-65
2022/09/08 00:59:18;;;;;;;18.73;12.18;;;16.10;99.90;;;;;;5034737;28;20025;-66
2022/09/08 01:01:43;;;;;;;14.98;12.23;;;16.10;99.90;;;;;;5033482;28;20109;-65
2022/09/08 01:04:09;;;;;;;15.18;12.55;;;16.00;99.90;;;;;;5033744;28;20081;-65
2022/09/08 01:12:58;;;;;;;16.08;13.65;;;16.00;99.90;;;;;;5034193;28;20083;-65
2022/09/08 01:15:29;;;;;;;18.17;13.30;;;15.90;99.90;;;;;;5033719;28;20397;-66
2022/09/08 01:17:56;;;;;;;15.85;12.45;;;16.00;99.90;;;;;;5034062;28;20031;-66
2022/09/08 01:20:33;;;;;;;14.35;12.18;;;15.90;99.90;;;;;;5033687;28;20033;-66
2022/09/08 01:23:43;;;;;;;17.10;13.07;;;15.90;99.90;;;;;;5032819;28;20038;-66
2022/09/08 01:26:34;;;;;;;17.45;12.68;;;15.90;99.90;;;;;;5033793;28;20033;-66
2022/09/08 01:29:02;;;;;;;15.25;12.15;;;16.00;99.90;;;;;;5033591;28;20032;-66
2022/09/08 01:31:31;;;;;;;16.13;12.37;;;16.00;99.90;;;;;;5033677;28;20036;-65
2022/09/08 01:33:58;;;;;;;;;;;16.00;99.90;;;;;;5034410;28;20315;-66
2022/09/08 01:36:24;;;;;;;20.35;12.15;;;16.00;99.90;;;;;;5033763;28;19920;-66
2022/09/08 01:38:50;;;;;;;17.42;12.50;;;15.90;99.90;;;;;;5032524;28;20029;-66
2022/09/08 01:41:15;;;;;;;14.07;12.13;;;15.90;99.90;;;;;;5033723;28;20022;-66
2022/09/08 01:43:41;;;;;;;13.65;11.63;;;15.90;99.90;;;;;;5032421;28;20385;-66
2022/09/08 01:46:07;;;;;;;16.60;13.07;;;15.90;99.90;;;;;;5032420;28;20120;-66
2022/09/08 01:48:33;;;;;;;13.52;12.13;;;15.90;99.90;;;;;;5033707;28;20034;-66
2022/09/08 01:51:04;;;;;;;13.57;12.10;;;15.90;99.90;;;;;;5033829;28;20033;-66
2022/09/08 01:53:29;;;;;;;13.95;12.20;;;15.80;99.90;;;;;;5034219;28;20032;-65
2022/09/08 01:55:55;;;;;;;15.02;11.40;;;15.80;99.90;;;;;;5033647;28;20033;-65
2022/09/08 01:58:21;;;;;;;13.70;11.27;;;15.80;99.90;;;;;;5033552;28;20101;-66
2022/09/08 02:00:46;;;;;;;15.15;11.93;;;15.70;99.90;;;;;;5033562;28;20441;-65
2022/09/08 02:03:12;;;;;;;14.60;11.88;;;15.70;99.90;;;;;;5033677;28;20053;-66
2022/09/08 02:05:40;;;;;;;12.77;11.43;;;15.70;99.90;;;;;;5032267;28;20497;-65
2022/09/08 02:08:24;;;;;;;13.13;11.73;;;15.60;99.90;;;;;;5032141;28;20026;-65
2022/09/08 02:10:54;;;;;;;13.30;11.90;;;15.60;99.90;;;;;;5033881;28;20032;-65
2022/09/08 02:13:20;;;;;;;17.45;12.50;;;15.60;99.90;;;;;;5035821;28;20413;-65
2022/09/08 02:15:46;;;;;;;13.70;12.27;;;15.60;99.90;;;;;;5037235;28;20116;-66
2022/09/08 02:18:11;;;;;;;20.73;12.45;;;15.60;99.90;;;;;;5036155;28;20477;-65
2022/09/08 02:20:37;;;;;;;16.70;12.70;;;15.60;99.90;;;;;;5037213;28;20025;-65
2022/09/08 02:23:02;;;;;;;16.17;12.52;;;15.60;99.90;;;;;;5036885;28;20028;-65
2022/09/08 02:25:28;;;;;;;15.25;12.82;;;15.60;99.90;;;;;;5037100;28;20072;-65
2022/09/08 02:27:54;;;;;;;15.57;12.82;;;15.60;99.90;;;;;;5037058;28;20079;-65
2022/09/08 02:30:21;;;;;;;19.38;14.30;;;15.60;99.90;;;;;;5037028;28;20022;-65
2022/09/08 02:32:48;;;;;;;19.92;12.77;;;15.60;99.90;;;;;;5035410;28;20029;-65
2022/09/08 02:35:14;;;;;;;14.77;12.73;;;15.60;99.90;;;;;;5035541;28;20489;-65
2022/09/08 02:37:40;;;;;;;16.23;13.32;;;15.60;99.90;;;;;;5036807;28;20099;-66
2022/09/08 02:40:06;;;;;;;19.55;14.18;;;15.70;99.90;;;;;;5036883;28;20026;-65
2022/09/08 02:42:32;;;;;;;18.23;13.60;;;15.60;99.90;;;;;;5036779;28;20474;-66
2022/09/08 02:44:57;;;;;;;16.73;13.43;;;15.60;99.90;;;;;;5035880;28;20129;-65
2022/09/08 02:47:23;;;;;;;16.20;13.82;;;15.60;99.90;;;;;;5036348;28;20033;-65
2022/09/08 02:49:49;;;;;;;20.63;14.05;;;15.60;99.90;;;;;;5036669;28;20036;-65
2022/09/08 02:52:14;;;;;;;17.85;13.88;;;15.50;99.90;;;;;;5036322;28;20044;-65
2022/09/08 02:54:40;;;;;;;20.60;13.05;;;15.50;99.90;;;;;;5036210;28;20029;-65
2022/09/08 02:57:06;;;;;;;18.55;13.77;;;15.50;99.90;;;;;;5036512;28;20029;-65
2022/09/08 02:59:31;;;;;;;19.77;13.90;;;15.40;99.90;;;;;;5036626;28;20099;-65
2022/09/08 03:01:58;;;;;;;17.50;14.27;;;15.40;99.90;;;;;;5035920;28;20101;-66
2022/09/08 03:04:24;;;;;;;21.90;12.88;;;15.50;99.90;;;;;;5036426;28;20021;-65
2022/09/08 03:06:50;;;;;;;18.13;14.35;;;15.40;99.90;;;;;;5036398;28;20025;-65
2022/09/08 03:09:16;;;;;;;18.20;13.48;;;15.40;99.90;;;;;;5036317;28;20021;-65
2022/09/08 03:11:41;;;;;;;15.45;13.70;;;15.40;99.90;;;;;;5036263;28;20466;-65
2022/09/08 03:14:07;;;;;;;19.48;15.35;;;15.50;99.90;;;;;;5036338;28;20026;-65
2022/09/08 03:16:32;;;;;;;22.02;16.55;;;15.50;99.90;;;;;;5036103;28;20034;-65
2022/09/08 03:18:58;;;;;;;20.08;15.75;;;15.60;99.90;;;;;;5036156;28;20487;-65
2022/09/08 03:21:24;;;;;;;16.40;13.60;;;15.70;99.90;;;;;;5035364;28;20358;-65
2022/09/08 03:23:49;;;;;;;15.85;13.88;;;15.70;99.90;;;;;;5034953;28;20026;-65
2022/09/08 03:26:18;;;;;;;18.20;14.38;;;15.60;99.90;;;;;;5034714;28;20026;-65
2022/09/08 03:28:44;;;;;;;;;;;15.60;99.90;;;;;;5036529;28;20048;-65
2022/09/08 03:31:15;;;;;;;19.90;13.77;;;15.60;99.90;;;;;;5035914;28;20000;-65
2022/09/08 03:33:42;;;;;;;19.75;14.23;;;15.60;99.90;;;;;;5035830;28;20031;-65
2022/09/08 03:36:09;;;;;;;16.92;14.43;;;15.60;99.90;;;;;;5035476;28;20075;-65
2022/09/08 03:38:35;;;;;;;17.90;14.48;;;15.60;99.90;;;;;;5035796;28;20033;-65
2022/09/08 03:41:06;;;;;;;21.95;14.85;;;15.70;99.90;;;;;;5034432;28;20469;-65
2022/09/08 03:43:31;;;;;;;16.02;13.75;;;15.80;99.90;;;;;;5035821;28;20040;-65
2022/09/08 03:45:57;;;;;;;17.88;13.45;;;15.80;99.90;;;;;;5035677;28;20104;-65
2022/09/08 03:48:23;;;;;;;16.98;14.05;;;15.80;99.90;;;;;;5035461;28;20060;-65
2022/09/08 03:50:49;;;;;;;14.95;12.70;;;15.80;99.90;;;;;;5035219;28;20029;-65
2022/09/08 03:53:14;;;;;;;14.85;13.23;;;15.80;99.90;;;;;;5035341;28;20108;-65
2022/09/08 03:55:41;;;;;;;14.98;13.02;;;15.70;99.90;;;;;;5035110;28;20069;-65
2022/09/08 03:58:08;;;;;;;16.88;13.60;;;15.70;99.90;;;;;;5034160;28;20168;-65
2022/09/08 04:00:34;;;;;;;16.73;13.32;;;15.70;99.90;;;;;;5033932;28;20025;-61
2022/09/08 04:03:00;;;;;;;16.08;13.07;;;15.70;99.90;;;;;;5035450;28;20053;-62
2022/09/08 04:05:26;;;;;;;21.35;15.23;;;15.70;99.90;;;;;;5035080;28;20056;-62
2022/09/08 04:07:51;;;;;;;20.42;16.40;;;15.70;99.90;;;;;;5035124;28;20118;-61
2022/09/08 04:10:19;;;;;;;20.15;16.05;;;15.90;99.90;;;;;;5035090;28;20025;-62
2022/09/08 04:12:45;;;;;;;20.90;15.57;;;16.00;99.90;;;;;;5035260;28;20377;-62
2022/09/08 04:15:11;;;;;;;19.10;15.20;;;16.10;99.90;;;;;;5034995;28;20037;-62
2022/09/08 04:17:38;;;;;;;23.08;16.33;;;16.10;99.90;;;;;;5035008;28;20453;-65
2022/09/08 04:20:05;;;;;;;18.17;15.63;;;16.10;99.90;;;;;;5033554;28;20021;-65
2022/09/08 04:22:31;;;;;;;19.65;14.20;;;16.10;99.90;;;;;;5033593;28;20022;-65
2022/09/08 04:24:56;;;;;;;20.23;15.65;;;16.10;99.90;;;;;;5034882;28;20036;-65
2022/09/08 04:27:23;;;;;;;20.92;15.82;;;16.10;99.90;;;;;;5035108;28;20026;-65
2022/09/08 04:29:50;;;;;;;20.65;17.33;;;16.10;99.90;;;;;;5034781;28;20032;-65
2022/09/08 04:32:15;;;;;;;20.63;15.95;;;16.10;99.90;;;;;;5034875;28;20166;-65
2022/09/08 04:34:41;;;;;;;23.67;16.85;;;16.10;99.90;;;;;;5035150;28;20034;-65
2022/09/08 04:37:06;;;;;;;21.17;18.15;;;16.10;99.90;;;;;;5035116;28;20028;-65
2022/09/08 04:39:32;;;;;;;25.10;20.00;;;16.10;99.90;;;;;;5035377;28;20021;-65
2022/09/08 04:41:59;;;;;;;29.63;20.60;;;16.20;99.90;;;;;;5033703;28;20022;-65
2022/09/08 04:44:25;;;;;;;26.52;21.40;;;16.30;99.90;;;;;;5034698;28;20072;-65
2022/09/08 04:46:50;;;;;;;29.50;21.60;;;16.40;99.90;;;;;;5034439;28;20026;-65
2022/09/08 04:49:16;;;;;;;26.10;20.40;;;16.50;99.90;;;;;;5034488;28;20052;-65
2022/09/08 04:51:42;;;;;;;21.55;18.13;;;16.50;99.90;;;;;;5034250;28;20025;-64
2022/09/08 04:54:09;;;;;;;24.95;17.63;;;16.50;99.90;;;;;;5034665;28;20026;-65
2022/09/08 04:56:35;;;;;;;22.15;17.63;;;16.50;99.90;;;;;;5032824;28;20033;-65
2022/09/08 04:59:01;;;;;;;26.85;19.70;;;16.50;99.90;;;;;;5034143;28;20041;-65
2022/09/08 05:01:33;;;;;;;26.42;19.42;;;16.50;99.90;;;;;;5034461;28;20061;-65
2022/09/08 05:04:05;;;;;;;23.48;18.58;;;16.60;99.90;;;;;;5034754;28;20128;-65
2022/09/08 05:06:32;;;;;;;27.13;18.75;;;16.60;99.90;;;;;;5034026;28;20090;-65
2022/09/08 05:08:59;;;;;;;27.80;19.65;;;16.70;99.90;;;;;;5033624;28;20041;-64
2022/09/08 05:11:27;;;;;;;26.40;19.60;;;16.70;99.90;;;;;;5032865;28;20025;-64
2022/09/08 05:13:54;;;;;;;23.73;19.33;;;16.80;99.90;;;;;;5034005;28;20025;-65
2022/09/08 05:16:22;;;;;;;24.80;17.85;;;16.90;99.90;;;;;;5033859;28;20038;-65
2022/09/08 05:18:50;;;;;;;32.38;19.27;;;17.00;99.90;;;;;;5033853;28;20466;-65
2022/09/08 05:21:16;;;;;;;23.38;18.55;;;17.00;99.90;;;;;;5033765;28;20025;-65
2022/09/08 05:23:43;;;;;;;20.42;17.75;;;17.10;99.90;;;;;;5033774;28;20465;-65
2022/09/08 05:26:11;;;;;;;21.67;18.70;;;17.20;99.90;;;;;;5033566;28;20033;-65
2022/09/08 05:28:39;;;;;;;27.58;18.23;;;17.20;99.90;;;;;;5032531;28;20469;-65
2022/09/08 05:31:06;;;;;;;21.67;17.00;;;17.30;99.90;;;;;;5033764;28;20030;-65
2022/09/08 05:33:33;;;;;;;26.98;18.38;;;17.40;99.90;;;;;;5033700;28;20037;-65
2022/09/08 05:35:59;;;;;;;21.85;17.05;;;17.50;99.90;;;;;;5032172;28;20037;-65
2022/09/08 05:38:25;;;;;;;18.85;16.55;;;17.70;99.90;;;;;;5033577;28;20034;-65
2022/09/08 05:40:50;;;;;;;19.85;14.98;;;17.80;99.90;;;;;;5032011;28;20037;-65
2022/09/08 05:43:17;;;;;;;18.35;14.80;;;18.10;99.90;;;;;;5033901;28;20034;-65
2022/09/08 05:45:44;;;;;;;18.92;13.15;;;18.30;99.90;;;;;;5033637;28;20026;-65
2022/09/08 05:48:10;;;;;;;16.75;13.32;;;18.50;99.90;;;;;;5036335;28;20030;-65
2022/09/08 05:50:35;;;;;;;17.80;13.35;;;18.70;99.90;;;;;;5036318;28;20033;-65
2022/09/08 05:53:02;;;;;;;21.75;14.05;;;18.70;99.90;;;;;;5037869;28;20104;-65
2022/09/08 05:55:29;;;;;;;16.75;12.63;;;18.80;99.90;;;;;;5037856;28;20044;-65
2022/09/08 05:57:56;;;;;;;19.50;13.82;;;18.80;99.90;;;;;;5037524;28;20025;-64
2022/09/08 06:00:22;;;;;;;17.17;13.70;;;18.90;99.90;;;;;;5037859;28;20167;-65
2022/09/08 06:02:49;;;;;;;16.35;13.10;;;19.00;99.90;;;;;;5036070;28;20556;-65
2022/09/08 06:05:16;;;;;;;16.17;12.88;;;19.00;99.90;;;;;;5037358;28;20045;-64
2022/09/08 06:07:41;;;;;;;13.93;11.48;;;19.10;99.90;;;;;;5036154;28;20033;-65
2022/09/08 06:10:08;;;;;;;17.65;13.48;;;19.20;99.90;;;;;;5037346;28;20029;-65
2022/09/08 06:12:33;;;;;;;15.38;12.48;;;19.30;99.90;;;;;;5037304;28;20029;-65
2022/09/08 06:14:59;;;;;;;16.98;12.68;;;19.30;99.90;;;;;;5037192;28;20033;-65
2022/09/08 06:17:24;;;;;;;18.23;12.75;;;19.50;99.90;;;;;;5037462;28;20026;-63
2022/09/08 06:19:50;;;;;;;15.82;11.48;;;20.00;99.90;;;;;;5037592;28;20033;-63
2022/09/08 06:22:16;;;;;;;13.40;11.15;;;20.50;99.90;;;;;;5036812;28;20033;-65
2022/09/08 06:24:41;;;;;;;15.38;11.57;;;21.10;99.90;;;;;;5035738;28;20059;-64
2022/09/08 06:27:29;;;;;;;14.32;10.38;;;21.60;99.90;;;;;;5035930;28;20180;-63
2022/09/08 06:30:04;;;;;;;11.95;10.75;;;21.90;99.90;;;;;;5036904;28;20465;-63
2022/09/08 06:33:07;;;;;;;14.40;10.57;;;22.20;99.90;;;;;;5035537;28;20362;-63
2022/09/08 06:35:42;;;;;;;12.68;11.35;;;22.50;99.90;;;;;;5034738;28;20069;-63
2022/09/08 06:38:22;;;;;;;12.10;9.88;;;22.90;99.90;;;;;;5036708;28;20048;-64
2022/09/08 06:40:53;;;;;;;11.95;8.98;;;23.50;99.90;;;;;;5036855;28;20067;-64
2022/09/08 06:43:22;;;;;;;14.55;9.52;;;23.60;99.90;;;;;;5036595;28;20543;-64
2022/09/08 06:45:53;;;;;;;13.13;10.00;;;23.80;99.90;;;;;;5035254;28;20029;-64
2022/09/08 06:48:27;;;;;;;11.80;9.15;;;23.70;99.90;;;;;;5036575;28;20116;-64
2022/09/08 06:51:13;;;;;;;10.63;9.20;;;23.50;99.90;;;;;;5036908;28;20037;-64
2022/09/08 06:53:44;;;;;;;11.15;8.85;;;23.20;99.90;;;;;;5036643;28;20021;-64
2022/09/08 06:56:51;;;;;;;11.10;8.43;;;23.20;99.90;;;;;;5036491;28;20033;-64
2022/09/08 06:59:35;;;;;;;9.82;8.70;;;23.40;99.90;;;;;;5036811;28;20116;-64
2022/09/08 07:02:07;;;;;;;15.02;8.88;;;23.50;99.90;;;;;;5036227;28;20041;-64
2022/09/08 07:04:58;;;;;;;11.38;8.38;;;23.10;99.90;;;;;;5036174;28;20021;-64
2022/09/08 07:07:34;;;;;;;9.40;7.60;;;23.10;99.90;;;;;;5035546;28;20110;-64
2022/09/08 07:10:04;;;;;;;9.10;7.22;;;23.40;99.90;;;;;;5035059;28;20057;-64
2022/09/08 07:12:35;;;;;;;12.10;7.47;;;23.90;99.90;;;;;;5034929;28;20060;-64
2022/09/08 07:15:15;;;;;;;9.13;7.47;;;24.40;99.90;;;;;;5036182;28;20029;-64
2022/09/08 07:18:19;;;;;;;7.43;6.20;;;25.00;99.90;;;;;;5036083;28;20112;-64
2022/09/08 07:20:45;;;;;;;7.22;6.22;;;25.00;99.90;;;;;;5035925;28;20091;-64
2022/09/08 07:23:24;;;;;;;7.05;6.03;;;24.60;99.90;;;;;;5035954;28;20108;-64
2022/09/08 07:26:14;;;;;;;9.35;6.07;;;24.10;99.90;;;;;;5036526;28;20037;-64
2022/09/08 07:28:44;;;;;;;7.90;5.78;;;23.70;99.90;;;;;;5034911;28;20038;-64
2022/09/08 07:31:21;;;;;;;6.95;6.10;;;23.60;99.90;;;;;;5035834;28;20026;-64
2022/09/08 07:33:51;;;;;;;7.78;6.13;;;23.50;99.90;;;;;;5035815;28;20108;-64
2022/09/08 07:36:24;;;;;;;7.43;5.65;;;23.40;99.90;;;;;;5035829;28;20123;-64
2022/09/08 07:39:34;;;;;;;9.13;5.88;;;23.40;99.90;;;;;;5035876;28;20034;-64
2022/09/08 07:42:02;;;;;;;7.40;5.68;;;23.10;99.90;;;;;;5033545;28;20045;-64
2022/09/08 07:44:28;;;;;;;7.68;5.65;;;23.10;99.90;;;;;;5034309;28;20486;-64
2022/09/08 07:47:12;;;;;;;9.63;5.50;;;23.50;99.90;;;;;;5034241;28;20025;-64
2022/09/08 07:50:12;;;;;;;10.80;5.50;;;24.40;99.90;;;;;;5035303;28;20026;-64
2022/09/08 07:53:06;;;;;;;9.50;5.65;;;25.00;99.90;;;;;;5063994;28;20033;-64
2022/09/08 07:55:39;;;;;;;6.95;5.50;;;25.30;99.90;;;;;;5035430;28;20079;-64
2022/09/08 07:58:46;;;;;;;6.20;5.13;;;25.20;99.90;;;;;;5035517;28;20057;-64
2022/09/08 08:01:44;;;;;;;6.53;4.88;;;25.20;99.90;;;;;;5016911;28;20021;-64
2022/09/08 08:04:43;;;;;;;10.10;4.80;;;25.70;99.90;;;;;;5010243;28;20197;-64
2022/09/08 08:07:19;;;;;;;5.00;4.60;;;26.30;99.90;;;;;;5034621;28;20048;-64
2022/09/08 08:10:09;;;;;;;5.60;4.50;;;26.50;99.00;;;;;;5034687;28;20103;-64
2022/09/08 08:12:41;;;;;;;9.55;4.07;;;27.10;98.30;;;;;;5034084;28;20030;-64
2022/09/08 08:15:18;;;;;;;6.85;4.45;;;27.70;97.00;;;;;;5034825;28;20171;-64
2022/09/08 08:17:55;;;;;;;4.28;3.90;;;28.10;95.80;;;;;;5034828;28;20030;-65
2022/09/08 08:20:24;;;;;;;6.93;4.13;;;28.60;94.30;;;;;;5034943;28;20059;-65
2022/09/08 08:23:00;;;;;;;;;;;28.70;93.60;;;;;;5035524;28;20021;-65
2022/09/08 08:25:58;;;;;;;5.15;3.75;;;29.00;92.60;;;;;;5034604;28;20315;-65
2022/09/08 08:28:23;;;;;;;9.70;3.43;;;29.50;90.90;;;;;;5058474;28;20045;-65
2022/09/08 08:30:52;;;;;;;7.43;4.10;;;29.80;90.10;;;;;;5035004;28;20487;-65
2022/09/08 08:33:24;;;;;;;5.47;3.67;;;29.80;88.50;;;;;;5033674;28;20057;-65
2022/09/08 08:36:01;;;;;;;3.60;3.30;;;29.80;86.90;;;;;;5034838;28;20034;-65
2022/09/08 08:38:41;;;;;;;6.40;3.60;;;30.20;85.60;;;;;;5033353;28;20026;-65
2022/09/08 08:41:33;;;;;;;5.22;3.28;;;30.20;83.10;;;;;;5034762;28;20025;-65
2022/09/08 08:44:11;;;;;;;7.45;3.83;;;30.50;82.30;;;;;;5034579;28;20141;-65
2022/09/08 08:46:42;;;;;;;3.65;3.35;;;30.30;79.80;;;;;;5034552;28;20373;-65
2022/09/08 08:49:20;;;;;;;6.18;3.97;;;30.50;80.80;;;;;;5034198;28;20036;-65
2022/09/08 08:52:03;;;;;;;7.68;3.30;;;30.70;79.60;;;;;;5033013;28;20611;-65
2022/09/08 08:54:48;;;;;;;5.70;3.33;;;31.20;77.00;;;;;;5034550;28;20112;-65
2022/09/08 08:57:22;;;;;;;3.42;3.13;;;31.10;75.50;;;;;;5033369;28;20076;-66
2022/09/08 09:00:21;;;;;;;6.75;3.30;;;31.40;73.90;;;;;;5034655;28;20025;-65
2022/09/08 09:03:11;;;;;;;6.70;3.67;;;31.50;72.80;;;;;;5034082;28;20421;-65
2022/09/08 09:06:20;;;;;;;7.35;3.25;;;31.30;73.00;;;;;;5034258;28;20029;-65
2022/09/08 09:09:20;;;;;;;3.78;3.45;;;30.90;73.30;;;;;;5035983;28;20037;-64
2022/09/08 09:12:13;;;;;;;4.28;2.97;;;30.20;74.50;;;;;;5032979;28;20068;-64
2022/09/08 09:15:16;;;;;;;6.00;3.47;;;30.50;74.10;;;;;;5034421;28;20033;-65
2022/09/08 09:18:01;;;;;;;10.30;3.65;;;31.00;72.10;;;;;;5034374;28;20531;-67
2022/09/08 09:20:41;;;;;;;6.03;3.42;;;31.30;71.70;;;;;;5036763;28;20029;-69
2022/09/08 09:23:13;;;;;;;6.35;3.15;;;31.70;70.00;;;;;;5037162;28;20017;-66
2022/09/08 09:25:58;;;;;;;5.25;3.33;;;32.20;68.60;;;;;;5036613;28;20030;-67
2022/09/08 09:28:49;;;;;;;3.67;3.10;;;33.00;67.30;;;;;;5034541;28;20026;-67
2022/09/08 09:31:43;;;;;;;2.60;2.40;;;33.60;65.50;;;;;;5034852;28;20049;-66
2022/09/08 09:34:29;;;;;;;4.13;2.92;;;34.20;62.10;;;;;;5033327;28;20037;-67
2022/09/08 09:37:24;;;;;;;3.45;2.25;;;34.30;60.90;;;;;;5034612;28;20037;-67
2022/09/08 09:39:56;;;;;;;2.65;2.45;;;33.80;58.80;;;;;;5034687;28;20040;-65
2022/09/08 09:42:31;;;;;;;7.95;2.80;;;33.30;60.80;;;;;;5034401;28;20029;-66
2022/09/08 09:45:09;;;;;;;4.22;3.15;;;32.80;59.50;;;;;;5033582;28;20421;-67
2022/09/08 09:47:53;;;;;;;6.93;3.33;;;32.80;60.30;;;;;;5033836;28;20033;-66
2022/09/08 09:50:52;;;;;;;2.88;2.65;;;32.90;60.30;;;;;;5033266;28;20057;-65
2022/09/08 09:53:17;;;;;;;5.85;3.00;;;33.20;59.30;;;;;;5033619;28;20026;-65
2022/09/08 09:56:07;;;;;;;5.72;3.33;;;33.20;60.00;;;;;;5032503;28;20180;-66
2022/09/08 09:59:06;;;;;;;3.97;3.53;;;33.20;59.40;;;;;;5033477;28;20358;-65
2022/09/08 10:01:44;;;;;;;6.50;4.15;;;32.80;60.30;;;;;;5033743;28;20030;-66
2022/09/08 10:04:46;;;;;;;7.07;4.60;;;32.60;60.70;;;;;;5034292;28;20064;-64
2022/09/08 10:07:18;;;;;;;5.32;4.22;;;31.40;62.40;;;;;;5033179;28;20091;-64
2022/09/08 10:10:20;;;;;;;6.45;4.38;;;31.00;64.40;;;;;;5032225;28;20017;-64
2022/09/08 10:12:52;;;;;;;5.13;4.22;;;30.40;65.80;;;;;;5033918;28;20026;-64
2022/09/08 10:15:48;;;;;;;4.88;4.43;;;30.20;67.10;;;;;;5033048;28;20421;-64
2022/09/08 10:18:34;;;;;;;7.28;4.15;;;30.40;67.30;;;;;;5033645;28;20025;-64
2022/09/08 10:21:11;;;;;;;6.72;4.03;;;30.50;67.60;;;;;;5033155;28;20116;-64
2022/09/08 10:24:10;;;;;;;4.82;4.28;;;30.20;68.90;;;;;;5033153;28;20033;-64
2022/09/08 10:26:54;;;;;;;8.68;4.50;;;30.00;69.80;;;;;;5033635;28;20033;-64
2022/09/08 10:29:34;;;;;;;11.63;4.43;;;30.00;70.30;;;;;;5033152;28;20048;-64
2022/09/08 10:32:34;;;;;;;5.32;3.90;;;30.30;70.50;;;;;;5033310;28;20088;-64
2022/09/08 10:35:13;;;;;;;6.63;3.90;;;30.30;69.90;;;;;;5036877;28;20068;-64
2022/09/08 10:37:54;;;;;;;6.18;4.50;;;30.00;71.60;;;;;;5037353;28;20099;-64
2022/09/08 10:40:22;;;;;;;5.68;4.55;;;30.10;71.20;;;;;;5036892;28;20030;-64
2022/09/08 10:42:49;;;;;;;;;;;30.00;71.20;;;;;;5037342;28;20029;-64
2022/09/08 10:45:38;;;;;;;11.15;4.53;;;30.30;71.50;;;;;;5036807;28;19959;-64
2022/09/08 10:48:26;;;;;;;14.23;5.22;;;30.50;70.00;;;;;;5036025;28;20443;-64
2022/09/08 10:50:53;;;;;;;5.97;4.13;;;30.30;70.30;;;;;;5036720;28;20028;-64
2022/09/08 10:53:37;;;;;;;5.20;3.72;;;30.40;70.50;;;;;;5035375;28;20030;-64
2022/09/08 10:56:12;;;;;;;6.72;4.15;;;30.20;70.90;;;;;;5035720;28;20473;-64
2022/09/08 10:58:50;;;;;;;4.63;4.05;;;30.40;71.50;;;;;;5036949;28;20073;-64
2022/09/08 11:01:40;;;;;;;9.18;3.63;;;30.60;70.50;;;;;;5037079;28;20533;-65
2022/09/08 11:04:06;;;;;;;12.85;4.45;;;30.20;70.80;;;;;;5035396;28;20084;-65
2022/09/08 11:06:37;;;;;;;6.68;4.85;;;29.70;71.80;;;;;;5036594;28;20414;-65
2022/09/08 11:09:29;;;;;;;10.10;4.90;;;28.90;73.50;;;;;;5034976;28;20482;-64
2022/09/08 11:12:16;;;;;;;7.65;4.82;;;28.10;75.10;;;;;;5034898;28;20041;-65
2022/09/08 11:14:59;;;;;;;6.28;4.55;;;27.60;77.20;;;;;;5035214;28;20064;-64
2022/09/08 11:17:27;;;;;;;8.40;4.72;;;27.30;77.90;;;;;;5034678;28;20033;-65
2022/09/08 11:20:11;;;;;;;7.38;4.90;;;27.20;79.60;;;;;;5034886;28;20029;-64
2022/09/08 11:23:06;;;;;;;7.93;4.28;;;27.00;80.70;;;;;;5034793;28;20036;-64
2022/09/08 11:26:20;;;;;;;13.10;5.80;;;27.00;81.90;;;;;;5035173;28;20026;-64
2022/09/08 11:28:51;;;;;;;10.23;4.80;;;26.80;81.50;;;;;;5035120;28;20048;-64
2022/09/08 11:31:17;;;;;;;7.30;4.50;;;26.70;83.00;;;;;;5035228;28;20024;-64
2022/09/08 11:33:55;;;;;;;6.45;4.40;;;26.50;83.70;;;;;;5035876;28;20369;-64
2022/09/08 11:36:44;;;;;;;4.90;4.32;;;26.40;85.60;;;;;;5035980;28;20484;-65
2022/09/08 11:39:39;;;;;;;9.40;4.70;;;26.40;86.40;;;;;;5034600;28;20033;-64
2022/09/08 11:42:20;;;;;;;5.35;3.85;;;26.10;88.10;;;;;;5035465;28;20086;-64
2022/09/08 11:44:53;;;;;;;10.30;3.60;;;25.80;89.40;;;;;;5034709;28;20021;-64
2022/09/08 11:47:25;;;;;;;7.88;3.83;;;25.60;90.40;;;;;;5034283;28;20657;-64
2022/09/08 11:50:15;;;;;;;3.70;3.40;;;25.40;90.60;;;;;;5035562;28;20381;-64
2022/09/08 11:52:56;;;;;;;6.20;4.53;;;25.20;91.70;;;;;;5034204;28;20116;-64
2022/09/08 11:55:45;;;;;;;7.22;3.53;;;24.80;92.90;;;;;;5035217;28;20036;-66
2022/09/08 11:58:15;;;;;;;6.05;3.80;;;24.60;94.40;;;;;;5034168;28;20557;-66
2022/09/08 12:00:56;;;;;;;7.95;3.38;;;24.40;95.70;;;;;;5035347;28;20104;-66
2022/09/08 12:03:52;;;;;;;3.97;3.67;;;24.20;97.20;;;;;;5033920;28;20045;-66
2022/09/08 12:06:29;;;;;;;7.32;4.00;;;24.00;98.70;;;;;;5035331;28;20432;-65
2022/09/08 12:09:13;;;;;;;4.85;4.22;;;23.80;99.50;;;;;;5035224;28;20029;-66
2022/09/08 12:12:10;;;;;;;7.03;4.00;;;23.50;99.90;;;;;;5034485;28;20044;-66
2022/09/08 12:14:43;;;;;;;7.90;5.20;;;23.10;99.90;;;;;;5033888;28;20022;-68
2022/09/08 12:17:26;;;;;;;5.55;4.18;;;23.10;99.90;;;;;;5034264;28;20037;-66
2022/09/08 12:20:07;;;;;;;6.00;4.63;;;23.00;99.90;;;;;;5033838;28;20026;-66
2022/09/08 12:22:53;;;;;;;6.78;4.25;;;22.90;99.90;;;;;;5034960;28;20377;-67
2022/09/08 12:25:30;;;;;;;8.48;4.28;;;22.60;99.90;;;;;;5034643;28;20033;-61
2022/09/08 12:28:04;;;;;;;6.28;3.90;;;22.40;99.90;;;;;;5034783;28;20032;-61
2022/09/08 12:31:01;;;;;;;5.22;4.40;;;22.20;99.90;;;;;;5033698;28;20025;-61
2022/09/08 12:33:45;;;;;;;5.32;4.07;;;21.80;99.90;;;;;;5034762;28;20028;-61
2022/09/08 12:36:12;;;;;;;4.95;4.45;;;21.40;99.90;;;;;;5034643;28;20469;-61
2022/09/08 12:38:41;;;;;;;8.80;4.55;;;21.10;99.90;;;;;;5034511;28;20384;-61
2022/09/08 12:41:40;;;;;;;9.60;4.68;;;20.80;99.90;;;;;;5034383;28;20030;-62
2022/09/08 12:44:11;;;;;;;7.95;4.32;;;20.60;99.90;;;;;;5033545;28;20397;-63
2022/09/08 12:46:43;;;;;;;7.07;4.45;;;20.40;99.90;;;;;;5034665;28;20037;-61
2022/09/08 12:49:45;;;;;;;7.22;3.50;;;20.20;99.90;;;;;;5034226;28;20029;-61
2022/09/08 12:52:33;;;;;;;7.10;4.18;;;20.20;99.90;;;;;;5034388;28;20026;-61
2022/09/08 12:55:12;;;;;;;4.43;3.05;;;20.00;99.90;;;;;;5034620;28;20056;-61
2022/09/08 12:57:41;;;;;;;4.97;3.13;;;19.90;99.90;;;;;;5033995;28;20388;-61
2022/09/08 13:00:14;;;;;;;3.72;3.00;;;19.80;99.90;;;;;;5034408;28;20067;-61
2022/09/08 13:02:40;;;;;;;4.15;2.97;;;19.70;99.90;;;;;;5034390;28;20057;-61
2022/09/08 13:05:15;;;;;;;7.00;3.25;;;19.60;99.90;;;;;;5034267;28;20091;-61
2022/09/08 13:08:02;;;;;;;7.25;3.17;;;19.50;99.90;;;;;;5034360;28;20030;-61
2022/09/08 13:10:35;;;;;;;6.13;3.03;;;19.40;99.90;;;;;;5034141;28;20075;-65
2022/09/08 13:13:25;;;;;;;4.90;3.45;;;19.30;99.90;;;;;;5033763;28;20044;-67
2022/09/08 13:16:22;;;;;;;6.85;3.40;;;19.10;99.90;;;;;;5032750;28;20044;-65
2022/09/08 13:19:11;;;;;;;2.50;2.30;;;19.00;99.90;;;;;;5056842;28;20087;-65
2022/09/08 13:21:59;;;;;;;6.40;2.85;;;19.00;99.90;;;;;;5033760;28;20045;-66